sensor_id;sensor_type;location;lat;lon;timestamp;temperature;humidity
40516;DHT22;26216;53.724;9.898;2023-04-30T00:01:10;7.20;82.20
40516;DHT22;26216;53.724;9.898;2023-04-30T00:03:35;7.20;82.20
40516;DHT22;26216;53.724;9.898;2023-04-30T00:06:01;7.20;82.30
40516;DHT22;26216;53.724;9.898;2023-04-30T00:08:27;7.10;82.30
40516;DHT22;26216;53.724;9.898;2023-04-30T00:10:54;7.10;82.40
40516;DHT22;26216;53.724;9.898;2023-04-30T00:13:20;7.10;82.40
40516;DHT22;26216;53.724;9.898;2023-04-30T00:15:46;7.10;82.40
40516;DHT22;26216;53.724;9.898;2023-04-30T00:18:12;7.10;82.50
40516;DHT22;26216;53.724;9.898;2023-04-30T00:20:37;7.00;82.40
40516;DHT22;26216;53.724;9.898;2023-04-30T00:23:03;7.00;82.50
40516;DHT22;26216;53.724;9.898;2023-04-30T00:25:29;7.00;82.40
40516;DHT22;26216;53.724;9.898;2023-04-30T00:27:55;6.90;82.90
40516;DHT22;26216;53.724;9.898;2023-04-30T00:30:21;6.90;82.40
40516;DHT22;26216;53.724;9.898;2023-04-30T00:32:47;6.90;82.40
40516;DHT22;26216;53.724;9.898;2023-04-30T00:35:13;6.90;82.60
40516;DHT22;26216;53.724;9.898;2023-04-30T00:37:38;6.80;82.50
40516;DHT22;26216;53.724;9.898;2023-04-30T00:40:05;6.80;82.60
40516;DHT22;26216;53.724;9.898;2023-04-30T00:42:31;6.80;82.50
40516;DHT22;26216;53.724;9.898;2023-04-30T00:44:57;6.70;82.50
40516;DHT22;26216;53.724;9.898;2023-04-30T00:47:23;6.70;82.40
40516;DHT22;26216;53.724;9.898;2023-04-30T00:49:48;6.70;82.40
40516;DHT22;26216;53.724;9.898;2023-04-30T00:52:15;6.70;82.50
40516;DHT22;26216;53.724;9.898;2023-04-30T00:54:41;6.70;82.50
40516;DHT22;26216;53.724;9.898;2023-04-30T00:57:08;6.70;82.50
40516;DHT22;26216;53.724;9.898;2023-04-30T00:59:37;6.60;82.50
40516;DHT22;26216;53.724;9.898;2023-04-30T01:02:03;6.60;82.60
40516;DHT22;26216;53.724;9.898;2023-04-30T01:04:29;6.60;82.60
40516;DHT22;26216;53.724;9.898;2023-04-30T01:06:56;6.50;82.60
40516;DHT22;26216;53.724;9.898;2023-04-30T01:09:22;6.50;82.50
40516;DHT22;26216;53.724;9.898;2023-04-30T01:15:07;6.50;82.90
40516;DHT22;26216;53.724;9.898;2023-04-30T01:20:06;6.40;82.60
40516;DHT22;26216;53.724;9.898;2023-04-30T01:22:54;6.40;82.70
40516;DHT22;26216;53.724;9.898;2023-04-30T01:25:43;6.30;82.70
40516;DHT22;26216;53.724;9.898;2023-04-30T01:28:17;6.40;82.90
40516;DHT22;26216;53.724;9.898;2023-04-30T01:30:46;6.30;82.70
40516;DHT22;26216;53.724;9.898;2023-04-30T01:33:13;6.30;82.70
40516;DHT22;26216;53.724;9.898;2023-04-30T01:39:08;6.30;83.10
40516;DHT22;26216;53.724;9.898;2023-04-30T01:42:25;6.30;83.10
40516;DHT22;26216;53.724;9.898;2023-04-30T01:50:33;6.20;82.70
40516;DHT22;26216;53.724;9.898;2023-04-30T01:53:06;6.20;82.80
40516;DHT22;26216;53.724;9.898;2023-04-30T01:55:43;6.10;82.80
40516;DHT22;26216;53.724;9.898;2023-04-30T01:58:12;6.10;83.00
40516;DHT22;26216;53.724;9.898;2023-04-30T02:00:39;6.10;82.90
40516;DHT22;26216;53.724;9.898;2023-04-30T02:03:05;6.10;82.90
40516;DHT22;26216;53.724;9.898;2023-04-30T02:05:32;6.10;82.90
40516;DHT22;26216;53.724;9.898;2023-04-30T02:07:58;6.10;82.90
40516;DHT22;26216;53.724;9.898;2023-04-30T02:10:25;6.00;83.00
40516;DHT22;26216;53.724;9.898;2023-04-30T02:12:52;6.00;83.00
40516;DHT22;26216;53.724;9.898;2023-04-30T02:15:19;6.00;83.00
40516;DHT22;26216;53.724;9.898;2023-04-30T02:17:45;6.00;82.90
40516;DHT22;26216;53.724;9.898;2023-04-30T02:20:11;6.00;83.00
40516;DHT22;26216;53.724;9.898;2023-04-30T02:22:37;5.90;83.00
40516;DHT22;26216;53.724;9.898;2023-04-30T02:25:03;5.90;83.00
40516;DHT22;26216;53.724;9.898;2023-04-30T02:27:31;5.90;83.00
40516;DHT22;26216;53.724;9.898;2023-04-30T02:29:57;5.90;83.10
40516;DHT22;26216;53.724;9.898;2023-04-30T02:32:24;5.90;83.70
40516;DHT22;26216;53.724;9.898;2023-04-30T02:34:50;5.90;83.00
40516;DHT22;26216;53.724;9.898;2023-04-30T02:37:16;5.90;83.20
40516;DHT22;26216;53.724;9.898;2023-04-30T02:39:41;5.80;83.20
40516;DHT22;26216;53.724;9.898;2023-04-30T02:42:07;5.80;83.20
40516;DHT22;26216;53.724;9.898;2023-04-30T02:44:34;5.80;83.30
40516;DHT22;26216;53.724;9.898;2023-04-30T02:47:00;5.80;83.40
40516;DHT22;26216;53.724;9.898;2023-04-30T02:49:27;5.80;83.40
40516;DHT22;26216;53.724;9.898;2023-04-30T02:51:53;5.80;83.40
40516;DHT22;26216;53.724;9.898;2023-04-30T02:54:19;5.80;83.50
40516;DHT22;26216;53.724;9.898;2023-04-30T02:56:46;5.80;83.70
40516;DHT22;26216;53.724;9.898;2023-04-30T02:59:12;5.70;84.00
40516;DHT22;26216;53.724;9.898;2023-04-30T03:01:38;5.70;83.80
40516;DHT22;26216;53.724;9.898;2023-04-30T03:04:04;5.70;83.60
40516;DHT22;26216;53.724;9.898;2023-04-30T03:06:33;5.70;83.60
40516;DHT22;26216;53.724;9.898;2023-04-30T03:08:59;5.70;83.70
40516;DHT22;26216;53.724;9.898;2023-04-30T03:11:26;5.70;83.70
40516;DHT22;26216;53.724;9.898;2023-04-30T03:13:52;5.60;83.80
40516;DHT22;26216;53.724;9.898;2023-04-30T03:16:19;5.60;83.80
40516;DHT22;26216;53.724;9.898;2023-04-30T03:18:46;5.60;83.90
40516;DHT22;26216;53.724;9.898;2023-04-30T03:21:12;5.60;84.00
40516;DHT22;26216;53.724;9.898;2023-04-30T03:23:38;5.50;83.90
40516;DHT22;26216;53.724;9.898;2023-04-30T03:26:04;5.50;83.70
40516;DHT22;26216;53.724;9.898;2023-04-30T03:28:30;5.50;83.80
40516;DHT22;26216;53.724;9.898;2023-04-30T03:30:56;5.50;83.90
40516;DHT22;26216;53.724;9.898;2023-04-30T03:33:21;5.50;84.00
40516;DHT22;26216;53.724;9.898;2023-04-30T03:35:47;5.50;84.00
40516;DHT22;26216;53.724;9.898;2023-04-30T03:38:14;5.40;83.90
40516;DHT22;26216;53.724;9.898;2023-04-30T03:40:40;5.40;84.00
40516;DHT22;26216;53.724;9.898;2023-04-30T03:43:06;5.40;84.20
40516;DHT22;26216;53.724;9.898;2023-04-30T03:45:32;5.40;84.00
40516;DHT22;26216;53.724;9.898;2023-04-30T03:47:58;5.40;84.10
40516;DHT22;26216;53.724;9.898;2023-04-30T03:50:23;5.40;84.10
40516;DHT22;26216;53.724;9.898;2023-04-30T03:52:49;5.40;84.10
40516;DHT22;26216;53.724;9.898;2023-04-30T03:55:15;5.30;84.00
40516;DHT22;26216;53.724;9.898;2023-04-30T03:57:41;5.30;84.20
40516;DHT22;26216;53.724;9.898;2023-04-30T04:00:08;5.30;84.40
40516;DHT22;26216;53.724;9.898;2023-04-30T04:02:35;5.30;84.50
40516;DHT22;26216;53.724;9.898;2023-04-30T04:05:02;5.30;84.30
40516;DHT22;26216;53.724;9.898;2023-04-30T04:07:28;5.30;84.40
40516;DHT22;26216;53.724;9.898;2023-04-30T04:09:54;5.30;84.60
40516;DHT22;26216;53.724;9.898;2023-04-30T04:12:20;5.30;84.60
40516;DHT22;26216;53.724;9.898;2023-04-30T04:14:47;5.30;84.70
40516;DHT22;26216;53.724;9.898;2023-04-30T04:17:12;5.30;84.70
40516;DHT22;26216;53.724;9.898;2023-04-30T04:19:39;5.30;84.80
40516;DHT22;26216;53.724;9.898;2023-04-30T04:22:05;5.20;85.00
40516;DHT22;26216;53.724;9.898;2023-04-30T04:24:31;5.20;85.00
40516;DHT22;26216;53.724;9.898;2023-04-30T04:26:58;5.20;84.90
40516;DHT22;26216;53.724;9.898;2023-04-30T04:29:24;5.30;85.10
40516;DHT22;26216;53.724;9.898;2023-04-30T04:31:50;5.30;85.10
40516;DHT22;26216;53.724;9.898;2023-04-30T04:34:16;5.20;85.20
40516;DHT22;26216;53.724;9.898;2023-04-30T04:36:44;5.30;85.30
40516;DHT22;26216;53.724;9.898;2023-04-30T04:39:10;5.30;85.50
40516;DHT22;26216;53.724;9.898;2023-04-30T04:41:36;5.30;85.80
40516;DHT22;26216;53.724;9.898;2023-04-30T04:44:02;5.30;85.80
40516;DHT22;26216;53.724;9.898;2023-04-30T04:46:30;5.40;86.10
40516;DHT22;26216;53.724;9.898;2023-04-30T04:48:56;5.40;86.20
40516;DHT22;26216;53.724;9.898;2023-04-30T04:51:23;5.50;86.40
40516;DHT22;26216;53.724;9.898;2023-04-30T04:53:49;5.50;86.60
40516;DHT22;26216;53.724;9.898;2023-04-30T04:56:15;5.60;86.80
40516;DHT22;26216;53.724;9.898;2023-04-30T04:58:43;5.60;86.80
40516;DHT22;26216;53.724;9.898;2023-04-30T05:01:09;5.70;86.90
40516;DHT22;26216;53.724;9.898;2023-04-30T05:03:35;5.80;87.00
40516;DHT22;26216;53.724;9.898;2023-04-30T05:06:02;5.80;87.00
40516;DHT22;26216;53.724;9.898;2023-04-30T05:08:28;5.90;87.30
40516;DHT22;26216;53.724;9.898;2023-04-30T05:10:54;6.00;87.40
40516;DHT22;26216;53.724;9.898;2023-04-30T05:13:20;6.00;87.40
40516;DHT22;26216;53.724;9.898;2023-04-30T05:15:48;6.10;87.60
40516;DHT22;26216;53.724;9.898;2023-04-30T05:18:14;6.20;87.80
40516;DHT22;26216;53.724;9.898;2023-04-30T05:20:40;6.30;88.10
40516;DHT22;26216;53.724;9.898;2023-04-30T05:23:06;6.40;88.30
40516;DHT22;26216;53.724;9.898;2023-04-30T05:25:32;6.50;88.50
40516;DHT22;26216;53.724;9.898;2023-04-30T05:27:58;6.60;88.70
40516;DHT22;26216;53.724;9.898;2023-04-30T05:30:24;6.70;88.60
40516;DHT22;26216;53.724;9.898;2023-04-30T05:32:50;6.80;88.60
40516;DHT22;26216;53.724;9.898;2023-04-30T05:35:18;6.90;88.80
40516;DHT22;26216;53.724;9.898;2023-04-30T05:37:44;7.00;88.80
40516;DHT22;26216;53.724;9.898;2023-04-30T05:40:10;7.10;89.00
40516;DHT22;26216;53.724;9.898;2023-04-30T05:42:37;7.30;89.20
40516;DHT22;26216;53.724;9.898;2023-04-30T05:45:06;7.40;89.40
40516;DHT22;26216;53.724;9.898;2023-04-30T05:47:32;7.50;89.50
40516;DHT22;26216;53.724;9.898;2023-04-30T05:49:58;7.60;89.50
40516;DHT22;26216;53.724;9.898;2023-04-30T05:52:24;7.70;89.60
40516;DHT22;26216;53.724;9.898;2023-04-30T05:54:50;7.80;89.90
40516;DHT22;26216;53.724;9.898;2023-04-30T05:57:17;8.00;90.00
40516;DHT22;26216;53.724;9.898;2023-04-30T05:59:43;8.10;90.10
40516;DHT22;26216;53.724;9.898;2023-04-30T06:02:09;8.20;90.30
40516;DHT22;26216;53.724;9.898;2023-04-30T06:04:35;8.40;90.40
40516;DHT22;26216;53.724;9.898;2023-04-30T06:07:01;8.50;90.50
40516;DHT22;26216;53.724;9.898;2023-04-30T06:09:26;8.70;90.60
40516;DHT22;26216;53.724;9.898;2023-04-30T06:11:52;8.80;90.30
40516;DHT22;26216;53.724;9.898;2023-04-30T06:14:20;9.00;90.30
40516;DHT22;26216;53.724;9.898;2023-04-30T06:16:47;9.10;90.30
40516;DHT22;26216;53.724;9.898;2023-04-30T06:19:14;9.20;90.10
40516;DHT22;26216;53.724;9.898;2023-04-30T06:21:40;9.40;90.20
40516;DHT22;26216;53.724;9.898;2023-04-30T06:24:08;9.50;90.00
40516;DHT22;26216;53.724;9.898;2023-04-30T06:26:35;9.60;89.40
40516;DHT22;26216;53.724;9.898;2023-04-30T06:29:03;9.70;89.30
40516;DHT22;26216;53.724;9.898;2023-04-30T06:31:29;9.70;88.80
40516;DHT22;26216;53.724;9.898;2023-04-30T06:33:55;9.80;88.60
40516;DHT22;26216;53.724;9.898;2023-04-30T06:36:22;9.90;88.60
40516;DHT22;26216;53.724;9.898;2023-04-30T06:38:48;10.00;88.70
40516;DHT22;26216;53.724;9.898;2023-04-30T06:41:13;10.10;88.50
40516;DHT22;26216;53.724;9.898;2023-04-30T06:43:45;10.10;88.00
40516;DHT22;26216;53.724;9.898;2023-04-30T06:46:12;10.20;87.20
40516;DHT22;26216;53.724;9.898;2023-04-30T06:48:39;10.30;85.30
40516;DHT22;26216;53.724;9.898;2023-04-30T06:51:05;10.30;86.10
40516;DHT22;26216;53.724;9.898;2023-04-30T06:53:31;10.30;85.80
40516;DHT22;26216;53.724;9.898;2023-04-30T06:55:57;10.40;85.90
40516;DHT22;26216;53.724;9.898;2023-04-30T06:58:23;10.50;86.20
40516;DHT22;26216;53.724;9.898;2023-04-30T07:00:49;10.60;86.40
40516;DHT22;26216;53.724;9.898;2023-04-30T07:03:15;10.60;86.80
40516;DHT22;26216;53.724;9.898;2023-04-30T07:05:41;10.70;86.30
40516;DHT22;26216;53.724;9.898;2023-04-30T07:08:07;10.80;85.00
40516;DHT22;26216;53.724;9.898;2023-04-30T07:10:33;10.90;84.70
40516;DHT22;26216;53.724;9.898;2023-04-30T07:12:59;11.00;83.50
40516;DHT22;26216;53.724;9.898;2023-04-30T07:15:25;11.10;82.70
40516;DHT22;26216;53.724;9.898;2023-04-30T07:17:51;11.10;83.10
40516;DHT22;26216;53.724;9.898;2023-04-30T07:20:17;11.20;81.20
40516;DHT22;26216;53.724;9.898;2023-04-30T07:22:43;11.20;78.90
40516;DHT22;26216;53.724;9.898;2023-04-30T07:25:11;11.20;76.80
40516;DHT22;26216;53.724;9.898;2023-04-30T07:27:37;11.20;77.30
40516;DHT22;26216;53.724;9.898;2023-04-30T07:30:05;11.20;77.20
40516;DHT22;26216;53.724;9.898;2023-04-30T07:32:33;11.20;77.10
40516;DHT22;26216;53.724;9.898;2023-04-30T07:34:59;11.20;76.90
40516;DHT22;26216;53.724;9.898;2023-04-30T07:37:25;11.20;78.50
40516;DHT22;26216;53.724;9.898;2023-04-30T07:39:51;11.30;77.30
40516;DHT22;26216;53.724;9.898;2023-04-30T07:42:17;11.30;77.70
40516;DHT22;26216;53.724;9.898;2023-04-30T07:44:43;11.40;75.40
40516;DHT22;26216;53.724;9.898;2023-04-30T07:47:09;11.40;75.70
40516;DHT22;26216;53.724;9.898;2023-04-30T07:49:35;11.40;75.50
40516;DHT22;26216;53.724;9.898;2023-04-30T07:52:01;11.50;75.00
40516;DHT22;26216;53.724;9.898;2023-04-30T07:54:28;11.50;74.90
40516;DHT22;26216;53.724;9.898;2023-04-30T07:56:54;11.40;75.20
40516;DHT22;26216;53.724;9.898;2023-04-30T07:59:20;11.50;77.20
40516;DHT22;26216;53.724;9.898;2023-04-30T08:01:46;11.50;77.10
40516;DHT22;26216;53.724;9.898;2023-04-30T08:04:12;11.70;77.30
40516;DHT22;26216;53.724;9.898;2023-04-30T08:06:38;11.80;77.30
40516;DHT22;26216;53.724;9.898;2023-04-30T08:09:04;11.80;75.50
40516;DHT22;26216;53.724;9.898;2023-04-30T08:11:30;12.00;74.80
40516;DHT22;26216;53.724;9.898;2023-04-30T08:13:56;12.00;74.50
40516;DHT22;26216;53.724;9.898;2023-04-30T08:16:22;12.00;75.60
40516;DHT22;26216;53.724;9.898;2023-04-30T08:18:47;12.10;74.60
40516;DHT22;26216;53.724;9.898;2023-04-30T08:21:14;12.10;74.20
40516;DHT22;26216;53.724;9.898;2023-04-30T08:23:40;12.20;75.70
40516;DHT22;26216;53.724;9.898;2023-04-30T08:26:07;12.30;75.50
40516;DHT22;26216;53.724;9.898;2023-04-30T08:28:33;12.40;73.60
40516;DHT22;26216;53.724;9.898;2023-04-30T08:30:59;12.40;72.40
40516;DHT22;26216;53.724;9.898;2023-04-30T08:33:25;12.50;74.10
40516;DHT22;26216;53.724;9.898;2023-04-30T08:35:52;12.60;74.50
40516;DHT22;26216;53.724;9.898;2023-04-30T08:38:18;12.60;74.30
40516;DHT22;26216;53.724;9.898;2023-04-30T08:40:51;12.60;75.70
40516;DHT22;26216;53.724;9.898;2023-04-30T08:43:19;12.70;75.40
40516;DHT22;26216;53.724;9.898;2023-04-30T08:45:45;12.90;74.40
40516;DHT22;26216;53.724;9.898;2023-04-30T08:48:12;12.90;73.00
40516;DHT22;26216;53.724;9.898;2023-04-30T08:50:41;12.90;71.30
40516;DHT22;26216;53.724;9.898;2023-04-30T08:53:07;12.90;70.30
40516;DHT22;26216;53.724;9.898;2023-04-30T08:55:35;12.90;69.20
40516;DHT22;26216;53.724;9.898;2023-04-30T08:58:03;12.80;71.00
40516;DHT22;26216;53.724;9.898;2023-04-30T09:00:31;12.80;70.40
40516;DHT22;26216;53.724;9.898;2023-04-30T09:02:57;12.80;72.50
40516;DHT22;26216;53.724;9.898;2023-04-30T09:05:25;12.80;73.10
40516;DHT22;26216;53.724;9.898;2023-04-30T09:07:51;12.90;72.80
40516;DHT22;26216;53.724;9.898;2023-04-30T09:10:19;12.90;72.20
40516;DHT22;26216;53.724;9.898;2023-04-30T09:13:01;12.90;72.10
40516;DHT22;26216;53.724;9.898;2023-04-30T09:15:29;13.00;73.30
40516;DHT22;26216;53.724;9.898;2023-04-30T09:18:06;13.00;69.30
40516;DHT22;26216;53.724;9.898;2023-04-30T09:20:32;13.00;68.20
40516;DHT22;26216;53.724;9.898;2023-04-30T09:23:09;13.00;70.60
40516;DHT22;26216;53.724;9.898;2023-04-30T09:25:42;13.10;70.00
40516;DHT22;26216;53.724;9.898;2023-04-30T09:28:11;13.20;71.90
40516;DHT22;26216;53.724;9.898;2023-04-30T09:30:38;13.20;71.80
40516;DHT22;26216;53.724;9.898;2023-04-30T09:33:04;13.20;68.80
40516;DHT22;26216;53.724;9.898;2023-04-30T09:35:36;13.30;70.70
40516;DHT22;26216;53.724;9.898;2023-04-30T09:38:44;13.30;67.70
40516;DHT22;26216;53.724;9.898;2023-04-30T09:41:27;13.30;68.60
40516;DHT22;26216;53.724;9.898;2023-04-30T09:43:57;13.40;68.40
40516;DHT22;26216;53.724;9.898;2023-04-30T09:46:33;13.40;68.70
40516;DHT22;26216;53.724;9.898;2023-04-30T09:49:05;13.50;68.00
40516;DHT22;26216;53.724;9.898;2023-04-30T09:51:32;13.50;67.70
40516;DHT22;26216;53.724;9.898;2023-04-30T09:54:02;13.50;68.40
40516;DHT22;26216;53.724;9.898;2023-04-30T09:56:29;13.60;69.30
40516;DHT22;26216;53.724;9.898;2023-04-30T09:59:01;13.70;67.50
40516;DHT22;26216;53.724;9.898;2023-04-30T10:01:29;13.70;68.60
40516;DHT22;26216;53.724;9.898;2023-04-30T10:03:56;13.80;70.10
40516;DHT22;26216;53.724;9.898;2023-04-30T10:06:23;13.90;68.20
40516;DHT22;26216;53.724;9.898;2023-04-30T10:08:56;14.00;69.00
40516;DHT22;26216;53.724;9.898;2023-04-30T10:11:26;14.00;67.70
40516;DHT22;26216;53.724;9.898;2023-04-30T10:14:09;14.10;66.10
40516;DHT22;26216;53.724;9.898;2023-04-30T10:16:57;14.00;65.80
40516;DHT22;26216;53.724;9.898;2023-04-30T10:19:33;14.10;67.90
40516;DHT22;26216;53.724;9.898;2023-04-30T10:22:01;14.20;68.80
40516;DHT22;26216;53.724;9.898;2023-04-30T10:24:27;14.20;67.60
40516;DHT22;26216;53.724;9.898;2023-04-30T10:26:54;14.20;69.20
40516;DHT22;26216;53.724;9.898;2023-04-30T10:29:22;14.30;69.00
40516;DHT22;26216;53.724;9.898;2023-04-30T10:31:49;14.40;67.40
40516;DHT22;26216;53.724;9.898;2023-04-30T10:37:34;14.50;68.20
40516;DHT22;26216;53.724;9.898;2023-04-30T10:40:01;14.60;67.60
40516;DHT22;26216;53.724;9.898;2023-04-30T10:42:29;14.70;68.90
40516;DHT22;26216;53.724;9.898;2023-04-30T10:44:56;14.70;67.60
40516;DHT22;26216;53.724;9.898;2023-04-30T10:47:28;14.80;69.50
40516;DHT22;26216;53.724;9.898;2023-04-30T10:50:04;14.90;69.90
40516;DHT22;26216;53.724;9.898;2023-04-30T10:52:33;15.00;69.20
40516;DHT22;26216;53.724;9.898;2023-04-30T10:55:06;15.10;67.80
40516;DHT22;26216;53.724;9.898;2023-04-30T10:57:40;15.20;69.50
40516;DHT22;26216;53.724;9.898;2023-04-30T11:02:42;15.30;66.90
40516;DHT22;26216;53.724;9.898;2023-04-30T11:05:12;15.40;66.70
40516;DHT22;26216;53.724;9.898;2023-04-30T11:07:56;15.40;67.10
40516;DHT22;26216;53.724;9.898;2023-04-30T11:10:23;15.40;66.40
40516;DHT22;26216;53.724;9.898;2023-04-30T11:12:54;15.40;67.40
40516;DHT22;26216;53.724;9.898;2023-04-30T11:15:24;15.40;64.80
40516;DHT22;26216;53.724;9.898;2023-04-30T11:17:50;15.40;66.20
40516;DHT22;26216;53.724;9.898;2023-04-30T11:20:22;15.50;67.60
40516;DHT22;26216;53.724;9.898;2023-04-30T11:23:10;15.50;68.10
40516;DHT22;26216;53.724;9.898;2023-04-30T11:25:43;15.70;66.70
40516;DHT22;26216;53.724;9.898;2023-04-30T11:28:17;15.70;68.50
40516;DHT22;26216;53.724;9.898;2023-04-30T11:30:50;15.90;68.80
40516;DHT22;26216;53.724;9.898;2023-04-30T11:33:29;16.00;69.70
40516;DHT22;26216;53.724;9.898;2023-04-30T11:35:57;16.10;66.70
40516;DHT22;26216;53.724;9.898;2023-04-30T11:38:28;16.10;63.70
40516;DHT22;26216;53.724;9.898;2023-04-30T11:40:56;16.10;64.60
40516;DHT22;26216;53.724;9.898;2023-04-30T11:43:24;16.10;65.80
40516;DHT22;26216;53.724;9.898;2023-04-30T11:48:36;16.20;67.20
40516;DHT22;26216;53.724;9.898;2023-04-30T11:51:17;16.20;66.20
40516;DHT22;26216;53.724;9.898;2023-04-30T11:53:48;16.30;67.90
40516;DHT22;26216;53.724;9.898;2023-04-30T11:56:21;16.40;64.50
40516;DHT22;26216;53.724;9.898;2023-04-30T11:58:49;16.40;66.00
40516;DHT22;26216;53.724;9.898;2023-04-30T12:01:16;16.50;66.90
40516;DHT22;26216;53.724;9.898;2023-04-30T12:03:44;16.50;67.20
40516;DHT22;26216;53.724;9.898;2023-04-30T12:06:27;16.60;67.00
40516;DHT22;26216;53.724;9.898;2023-04-30T12:08:54;16.70;68.00
40516;DHT22;26216;53.724;9.898;2023-04-30T12:11:25;16.80;68.40
40516;DHT22;26216;53.724;9.898;2023-04-30T12:13:52;16.80;64.30
40516;DHT22;26216;53.724;9.898;2023-04-30T12:16:18;16.90;65.80
40516;DHT22;26216;53.724;9.898;2023-04-30T12:18:45;17.00;66.60
40516;DHT22;26216;53.724;9.898;2023-04-30T12:21:12;17.10;65.00
40516;DHT22;26216;53.724;9.898;2023-04-30T12:23:38;17.10;64.10
40516;DHT22;26216;53.724;9.898;2023-04-30T12:26:04;17.20;64.50
40516;DHT22;26216;53.724;9.898;2023-04-30T12:28:30;17.20;64.10
40516;DHT22;26216;53.724;9.898;2023-04-30T12:30:58;17.30;65.10
40516;DHT22;26216;53.724;9.898;2023-04-30T12:33:29;17.30;61.70
40516;DHT22;26216;53.724;9.898;2023-04-30T12:35:56;17.20;61.80
40516;DHT22;26216;53.724;9.898;2023-04-30T12:38:25;17.10;61.10
40516;DHT22;26216;53.724;9.898;2023-04-30T12:40:51;17.00;62.40
40516;DHT22;26216;53.724;9.898;2023-04-30T12:43:17;17.00;63.70
40516;DHT22;26216;53.724;9.898;2023-04-30T12:48:13;17.10;65.10
40516;DHT22;26216;53.724;9.898;2023-04-30T12:50:40;17.10;65.40
40516;DHT22;26216;53.724;9.898;2023-04-30T12:53:06;17.20;65.90
40516;DHT22;26216;53.724;9.898;2023-04-30T12:55:35;17.30;64.70
40516;DHT22;26216;53.724;9.898;2023-04-30T12:58:06;17.40;65.20
40516;DHT22;26216;53.724;9.898;2023-04-30T13:00:49;17.50;65.50
40516;DHT22;26216;53.724;9.898;2023-04-30T13:03:20;17.60;63.70
40516;DHT22;26216;53.724;9.898;2023-04-30T13:05:52;17.70;65.10
40516;DHT22;26216;53.724;9.898;2023-04-30T13:08:19;17.80;64.40
40516;DHT22;26216;53.724;9.898;2023-04-30T13:10:46;17.90;65.10
40516;DHT22;26216;53.724;9.898;2023-04-30T13:13:14;18.00;65.80
40516;DHT22;26216;53.724;9.898;2023-04-30T13:15:44;18.10;65.00
40516;DHT22;26216;53.724;9.898;2023-04-30T13:18:17;18.20;63.30
40516;DHT22;26216;53.724;9.898;2023-04-30T13:20:43;18.30;63.90
40516;DHT22;26216;53.724;9.898;2023-04-30T13:23:10;18.30;63.60
40516;DHT22;26216;53.724;9.898;2023-04-30T13:25:39;18.30;63.70
40516;DHT22;26216;53.724;9.898;2023-04-30T13:28:06;18.30;60.50
40516;DHT22;26216;53.724;9.898;2023-04-30T13:30:32;18.20;57.90
40516;DHT22;26216;53.724;9.898;2023-04-30T13:32:59;18.20;59.50
40516;DHT22;26216;53.724;9.898;2023-04-30T13:35:25;18.10;59.50
40516;DHT22;26216;53.724;9.898;2023-04-30T13:37:52;18.00;61.00
40516;DHT22;26216;53.724;9.898;2023-04-30T13:40:19;18.00;61.10
40516;DHT22;26216;53.724;9.898;2023-04-30T13:42:46;17.90;58.60
40516;DHT22;26216;53.724;9.898;2023-04-30T13:45:13;17.90;60.80
40516;DHT22;26216;53.724;9.898;2023-04-30T13:47:39;17.90;61.80
40516;DHT22;26216;53.724;9.898;2023-04-30T13:50:06;17.90;61.80
40516;DHT22;26216;53.724;9.898;2023-04-30T13:52:33;18.00;62.20
40516;DHT22;26216;53.724;9.898;2023-04-30T13:54:59;18.00;62.80
40516;DHT22;26216;53.724;9.898;2023-04-30T13:57:25;18.00;63.20
40516;DHT22;26216;53.724;9.898;2023-04-30T13:59:54;18.10;63.50
40516;DHT22;26216;53.724;9.898;2023-04-30T14:02:20;18.20;63.90
40516;DHT22;26216;53.724;9.898;2023-04-30T14:04:46;18.30;63.20
40516;DHT22;26216;53.724;9.898;2023-04-30T14:07:12;18.40;62.80
40516;DHT22;26216;53.724;9.898;2023-04-30T14:09:38;18.50;61.50
40516;DHT22;26216;53.724;9.898;2023-04-30T14:12:04;18.60;61.60
40516;DHT22;26216;53.724;9.898;2023-04-30T14:14:30;18.60;61.80
40516;DHT22;26216;53.724;9.898;2023-04-30T14:16:56;18.60;62.50
40516;DHT22;26216;53.724;9.898;2023-04-30T14:19:22;18.70;61.80
40516;DHT22;26216;53.724;9.898;2023-04-30T14:21:56;18.70;60.00
40516;DHT22;26216;53.724;9.898;2023-04-30T14:24:22;18.80;58.50
40516;DHT22;26216;53.724;9.898;2023-04-30T14:26:49;18.80;59.70
40516;DHT22;26216;53.724;9.898;2023-04-30T14:29:15;18.80;59.80
40516;DHT22;26216;53.724;9.898;2023-04-30T14:31:41;18.80;59.50
40516;DHT22;26216;53.724;9.898;2023-04-30T14:34:07;18.80;58.40
40516;DHT22;26216;53.724;9.898;2023-04-30T14:36:33;18.80;57.70
40516;DHT22;26216;53.724;9.898;2023-04-30T14:39:00;18.80;56.80
40516;DHT22;26216;53.724;9.898;2023-04-30T14:41:32;18.70;55.20
40516;DHT22;26216;53.724;9.898;2023-04-30T14:43:58;18.60;56.60
40516;DHT22;26216;53.724;9.898;2023-04-30T14:46:24;18.60;57.60
40516;DHT22;26216;53.724;9.898;2023-04-30T14:48:51;18.60;57.90
40516;DHT22;26216;53.724;9.898;2023-04-30T14:51:18;18.60;55.20
40516;DHT22;26216;53.724;9.898;2023-04-30T14:53:44;18.50;57.00
40516;DHT22;26216;53.724;9.898;2023-04-30T14:56:10;18.50;55.80
40516;DHT22;26216;53.724;9.898;2023-04-30T14:58:37;18.50;57.40
40516;DHT22;26216;53.724;9.898;2023-04-30T15:01:03;18.50;57.00
40516;DHT22;26216;53.724;9.898;2023-04-30T15:03:29;18.60;58.60
40516;DHT22;26216;53.724;9.898;2023-04-30T15:05:56;18.70;58.70
40516;DHT22;26216;53.724;9.898;2023-04-30T15:08:23;18.70;57.70
40516;DHT22;26216;53.724;9.898;2023-04-30T15:10:49;18.90;59.40
40516;DHT22;26216;53.724;9.898;2023-04-30T15:13:15;19.00;59.30
40516;DHT22;26216;53.724;9.898;2023-04-30T15:15:41;19.20;60.00
40516;DHT22;26216;53.724;9.898;2023-04-30T15:18:08;19.30;59.90
40516;DHT22;26216;53.724;9.898;2023-04-30T15:20:35;19.50;59.10
40516;DHT22;26216;53.724;9.898;2023-04-30T15:23:01;19.70;60.50
40516;DHT22;26216;53.724;9.898;2023-04-30T15:25:27;19.90;61.10
40516;DHT22;26216;53.724;9.898;2023-04-30T15:27:53;20.10;59.20
40516;DHT22;26216;53.724;9.898;2023-04-30T15:30:19;20.30;59.90
40516;DHT22;26216;53.724;9.898;2023-04-30T15:32:46;20.60;60.00
40516;DHT22;26216;53.724;9.898;2023-04-30T15:35:12;20.80;60.20
40516;DHT22;26216;53.724;9.898;2023-04-30T15:37:38;21.00;60.50
40516;DHT22;26216;53.724;9.898;2023-04-30T15:40:05;21.30;60.80
40516;DHT22;26216;53.724;9.898;2023-04-30T15:42:32;21.60;60.40
40516;DHT22;26216;53.724;9.898;2023-04-30T15:44:58;21.80;56.50
40516;DHT22;26216;53.724;9.898;2023-04-30T15:47:24;22.00;56.40
40516;DHT22;26216;53.724;9.898;2023-04-30T15:49:50;22.10;54.30
40516;DHT22;26216;53.724;9.898;2023-04-30T15:52:16;22.30;56.10
40516;DHT22;26216;53.724;9.898;2023-04-30T15:54:42;22.50;56.80
40516;DHT22;26216;53.724;9.898;2023-04-30T15:57:09;22.60;57.20
40516;DHT22;26216;53.724;9.898;2023-04-30T15:59:35;22.80;54.50
40516;DHT22;26216;53.724;9.898;2023-04-30T16:02:01;22.90;54.50
40516;DHT22;26216;53.724;9.898;2023-04-30T16:04:27;23.00;54.20
40516;DHT22;26216;53.724;9.898;2023-04-30T16:06:55;23.10;55.00